Weather at Vršac International Airport

Public forecast

Using degrees Celsius for public forecast. Weather courtesy of forecast.io.

Current aviation weather report (METAR) for Vršac International Airport

Retrieved 2020/10/31 16:30 UTC (0 seconds ago):

LYVR 311630Z 34007KT 9999 FEW016 11/08 Q1022

Aviation forecast (TAF) for Vršac International Airport

Retrieved 2020/10/31 12:00 UTC (4 hours ago):

TAF LYVR 311100Z 3112/0112 32012KT 8000 BKN015 BKN027 TX15/0112Z TN03/0105Z TEMPO 3112/3115 3000 RA BKN006 BKN023 BECMG 3120/3122 VRB02KT 3000 BR SCT006 BECMG 0101/0103 0300 FG VV002 BECMG 0106/0108 3000 BR BKN003 BECMG 0108/0110 8000 NSW SCT010